createdAt,value
2018-12-19T00:03:44.133Z,77.74
2018-12-19T00:08:40.125Z,77.95
2018-12-19T00:13:36.109Z,77.85
2018-12-19T00:18:32.071Z,77.86
2018-12-19T00:23:28.061Z,77.49
2018-12-19T00:28:24.838Z,77.72
2018-12-19T00:33:20.824Z,77.24
2018-12-19T00:38:16.840Z,76.96
2018-12-19T00:43:12.833Z,76.75
2018-12-19T00:48:08.829Z,76.28
2018-12-19T00:53:04.833Z,76.33
2018-12-19T00:58:06.277Z,76.26
2018-12-19T01:03:02.610Z,75.85
2018-12-19T01:07:58.604Z,76.32
2018-12-19T01:12:54.586Z,75.43
2018-12-19T01:17:50.577Z,75.21
2018-12-19T01:22:46.563Z,75.40
2018-12-19T01:27:45.012Z,75.55
2018-12-19T01:32:41.068Z,75.11
2018-12-19T01:37:37.055Z,74.59
2018-12-19T01:42:33.028Z,74.89
2018-12-19T01:47:29.016Z,75.05
2018-12-19T01:52:24.992Z,74.85
2018-12-19T01:57:22.020Z,74.61
2018-12-19T02:02:18.197Z,74.51
2018-12-19T02:07:14.200Z,74.40
2018-12-19T02:12:10.204Z,74.86
2018-12-19T02:17:06.200Z,74.36
2018-12-19T02:22:02.223Z,74.79
2018-12-19T02:26:59.149Z,74.54
2018-12-19T02:31:55.183Z,74.61
2018-12-19T02:36:51.172Z,74.63
2018-12-19T02:41:47.189Z,74.81
2018-12-19T02:46:43.188Z,74.81
2018-12-19T02:51:39.185Z,74.41
2018-12-19T02:56:35.173Z,74.58
2018-12-19T03:01:31.605Z,74.55
2018-12-19T03:06:27.612Z,74.63
2018-12-19T03:11:23.644Z,74.37
2018-12-19T03:16:20.061Z,74.66
2018-12-19T03:21:16.064Z,74.43
2018-12-19T03:26:12.064Z,74.72
2018-12-19T03:31:08.063Z,74.89
2018-12-19T03:36:04.064Z,74.41
2018-12-19T03:41:00.184Z,74.39
2018-12-19T03:45:56.180Z,74.61
2018-12-19T03:50:52.171Z,74.42
2018-12-19T03:55:48.152Z,74.59
2018-12-19T04:00:44.182Z,74.81
2018-12-19T04:05:40.436Z,73.93
2018-12-19T04:10:36.432Z,74.77
2018-12-19T04:15:32.435Z,75.14
2018-12-19T04:20:28.445Z,74.56
2018-12-19T04:25:24.441Z,75.23
2018-12-19T04:30:20.434Z,74.61
2018-12-19T04:35:23.425Z,74.36
2018-12-19T04:40:19.425Z,74.63
2018-12-19T04:45:15.420Z,74.60
2018-12-19T04:50:11.400Z,73.91
2018-12-19T04:55:07.400Z,73.90
2018-12-19T05:00:06.357Z,73.63
2018-12-19T05:05:02.694Z,73.60
2018-12-19T05:09:59.519Z,73.25
2018-12-19T05:14:55.512Z,73.11
2018-12-19T05:19:51.921Z,73.30
2018-12-19T05:24:48.029Z,73.01
2018-12-19T05:35:16.542Z,73.35
2018-12-19T05:40:18.620Z,73.54
2018-12-19T05:45:10.550Z,73.57
2018-12-19T05:50:07.470Z,74.22
2018-12-19T05:55:03.921Z,73.90
2018-12-19T05:59:59.921Z,74.20
2018-12-19T06:04:57.172Z,75.49
2018-12-19T06:09:53.161Z,77.65
2018-12-19T06:14:49.152Z,79.53
2018-12-19T06:19:45.136Z,80.57
2018-12-19T06:24:41.135Z,81.15
2018-12-19T06:29:37.100Z,82.19
2018-12-19T06:34:33.085Z,83.00
2018-12-19T06:39:29.073Z,83.41
2018-12-19T06:44:25.059Z,84.00
2018-12-19T06:49:21.032Z,84.84
2018-12-19T06:54:17.036Z,85.29
2018-12-19T06:59:13.032Z,85.37
2018-12-19T07:04:09.008Z,85.12
2018-12-19T07:09:05.240Z,85.24
2018-12-19T07:14:01.261Z,85.19
2018-12-19T07:18:57.276Z,84.98
2018-12-19T07:23:53.414Z,84.87
2018-12-19T07:28:49.446Z,85.02
2018-12-19T07:33:45.479Z,84.65
2018-12-19T07:38:41.533Z,84.68
2018-12-19T07:43:37.578Z,84.54
2018-12-19T07:48:33.959Z,84.47
2018-12-19T07:53:30.016Z,84.63
2018-12-19T07:58:26.778Z,84.79
2018-12-19T08:03:42.903Z,84.77
2018-12-19T08:08:38.928Z,84.63
2018-12-19T08:13:34.959Z,83.94
2018-12-19T08:18:30.985Z,84.44
2018-12-19T08:23:27.015Z,83.74
2018-12-19T08:28:23.735Z,83.97
2018-12-19T08:33:19.754Z,83.84
2018-12-19T08:38:15.794Z,83.99
2018-12-19T08:43:11.836Z,84.42
2018-12-19T08:48:07.860Z,83.77
2018-12-19T08:53:03.892Z,83.98
2018-12-19T08:58:03.631Z,84.21
2018-12-19T09:02:59.808Z,83.64
2018-12-19T09:07:55.856Z,83.47
2018-12-19T09:12:51.862Z,83.29
2018-12-19T09:17:47.880Z,82.95
2018-12-19T09:22:43.931Z,83.26
2018-12-19T09:27:42.950Z,83.28
2018-12-19T09:32:39.088Z,82.83
2018-12-19T09:37:35.126Z,83.55
2018-12-19T09:42:31.283Z,83.08
2018-12-19T09:47:29.140Z,82.57
2018-12-19T09:52:26.209Z,83.03
2018-12-19T09:57:23.991Z,82.87
2018-12-19T10:02:23.808Z,82.67
2018-12-19T10:07:20.618Z,83.13
2018-12-19T10:12:16.761Z,82.80
2018-12-19T10:17:12.807Z,82.73
2018-12-19T10:22:08.839Z,83.10
2018-12-19T10:27:04.874Z,82.80
2018-12-19T10:32:01.265Z,83.09
2018-12-19T10:36:58.851Z,82.84
2018-12-19T10:41:54.939Z,82.78
2018-12-19T10:46:51.005Z,82.99
2018-12-19T10:51:47.120Z,83.00
2018-12-19T10:56:43.217Z,84.23
2018-12-19T11:01:39.603Z,84.53
2018-12-19T11:06:35.635Z,85.47
2018-12-19T11:11:32.858Z,86.38
2018-12-19T11:16:29.141Z,87.10
2018-12-19T11:21:25.188Z,87.67
2018-12-19T11:26:24.656Z,87.41
2018-12-19T11:31:20.727Z,87.54
2018-12-19T11:36:16.752Z,87.81
2018-12-19T11:41:12.912Z,87.74
2018-12-19T11:46:08.956Z,87.53
2018-12-19T11:51:05.085Z,86.38
2018-12-19T11:56:01.258Z,86.46
2018-12-19T12:00:57.526Z,86.08
2018-12-19T12:05:53.560Z,86.19
2018-12-19T12:16:06.059Z,84.20
2018-12-19T12:21:02.101Z,82.19
2018-12-19T12:25:58.244Z,80.46
2018-12-19T12:30:54.296Z,80.46
2018-12-19T12:35:50.453Z,80.01
2018-12-19T12:40:46.497Z,79.47
2018-12-19T12:45:42.611Z,78.44
2018-12-19T12:50:38.656Z,79.03
2018-12-19T12:55:34.785Z,78.06
2018-12-19T13:00:30.829Z,77.80
2018-12-19T13:05:26.922Z,77.84
2018-12-19T13:10:22.939Z,78.01
2018-12-19T13:15:25.040Z,77.91
2018-12-19T13:20:21.687Z,77.91
2018-12-19T13:25:17.731Z,77.59
2018-12-19T13:30:13.804Z,78.44
2018-12-19T13:35:09.839Z,78.96
2018-12-19T13:40:06.403Z,79.25
2018-12-19T13:45:03.449Z,78.47
2018-12-19T13:49:59.510Z,78.82
2018-12-19T13:54:56.065Z,78.29
2018-12-19T13:59:52.126Z,78.06
2018-12-19T14:04:48.542Z,78.03
2018-12-19T14:09:45.288Z,77.66
2018-12-19T14:14:41.498Z,78.75
2018-12-19T14:19:38.479Z,79.01
2018-12-19T14:24:35.342Z,78.90
2018-12-19T14:29:32.419Z,78.07
2018-12-19T14:34:28.935Z,79.27
2018-12-19T14:39:25.028Z,79.07
2018-12-19T14:44:21.112Z,79.65
2018-12-19T14:49:17.199Z,79.22
2018-12-19T14:54:13.257Z,80.19
2018-12-19T14:59:09.281Z,80.83
2018-12-19T15:04:05.338Z,81.41
2018-12-19T15:09:01.430Z,81.51
2018-12-19T15:13:57.512Z,82.41
2018-12-19T15:18:53.591Z,82.34
2018-12-19T15:23:50.773Z,83.18
2018-12-19T15:28:46.870Z,83.18
2018-12-19T15:33:43.485Z,83.49
2018-12-19T15:38:39.480Z,83.39
2018-12-19T15:43:35.493Z,83.30
2018-12-19T15:48:31.507Z,84.28
2018-12-19T15:53:28.111Z,84.30
2018-12-19T15:58:25.015Z,83.99
2018-12-19T16:03:21.092Z,84.11
2018-12-19T16:08:17.267Z,83.62
2018-12-19T16:13:13.284Z,83.30
2018-12-19T16:18:09.288Z,83.49
2018-12-19T16:23:05.312Z,83.62
2018-12-19T16:28:05.045Z,83.99
2018-12-19T16:33:01.092Z,82.99
2018-12-19T16:37:57.072Z,84.24
2018-12-19T16:42:53.072Z,83.71
2018-12-19T16:47:49.082Z,83.88
2018-12-19T16:52:46.393Z,84.29
2018-12-19T16:57:42.801Z,85.07
2018-12-19T17:02:39.363Z,85.22
2018-12-19T17:07:35.357Z,84.96
2018-12-19T17:12:31.353Z,85.50
2018-12-19T17:17:27.342Z,85.44
2018-12-19T17:22:23.328Z,85.58
2018-12-19T17:27:19.433Z,86.21
2018-12-19T17:32:15.473Z,85.70
2018-12-19T17:37:11.487Z,85.57
2018-12-19T17:42:07.515Z,86.30
2018-12-19T17:47:03.556Z,86.38
2018-12-19T17:51:59.546Z,85.96
2018-12-19T17:56:55.536Z,86.85
2018-12-19T18:01:51.563Z,86.52
2018-12-19T18:06:47.569Z,86.64
2018-12-19T18:11:43.583Z,86.21
2018-12-19T18:16:39.580Z,85.54
2018-12-19T18:21:35.565Z,85.94
2018-12-19T18:26:31.560Z,85.81
2018-12-19T18:31:27.572Z,85.89
2018-12-19T18:36:23.573Z,85.92
2018-12-19T18:41:19.592Z,86.42
2018-12-19T18:46:15.716Z,86.35
2018-12-19T18:51:11.709Z,86.08
2018-12-19T18:56:07.697Z,86.79
2018-12-19T19:01:03.802Z,86.96
2018-12-19T19:05:59.808Z,86.72
2018-12-19T19:10:55.797Z,87.07
2018-12-19T19:15:51.780Z,87.10
2018-12-19T19:20:47.788Z,86.78
2018-12-19T19:25:44.292Z,87.20
2018-12-19T19:30:40.353Z,86.49
2018-12-19T19:35:36.356Z,86.01
2018-12-19T19:40:32.371Z,85.50
2018-12-19T19:45:28.393Z,85.94
2018-12-19T19:50:24.394Z,85.85
2018-12-19T19:55:20.384Z,86.04
2018-12-19T20:00:18.388Z,85.76
2018-12-19T20:05:14.400Z,85.91
2018-12-19T20:10:10.424Z,85.46
2018-12-19T20:15:06.605Z,85.75
2018-12-19T20:20:03.073Z,85.30
2018-12-19T20:24:59.142Z,85.35
2018-12-19T20:29:55.472Z,84.46
2018-12-19T20:34:51.740Z,85.09
2018-12-19T20:39:49.031Z,84.99
2018-12-19T20:44:46.997Z,85.43
2018-12-19T20:49:43.802Z,85.66
2018-12-19T20:54:41.263Z,85.28
2018-12-19T20:59:37.470Z,84.71
2018-12-19T21:04:33.936Z,85.20
2018-12-19T21:09:30.032Z,84.61
2018-12-19T21:14:26.522Z,84.30
2018-12-19T21:19:23.141Z,84.45
2018-12-19T21:24:19.666Z,84.58
2018-12-19T21:29:16.154Z,83.44
2018-12-19T21:34:12.691Z,84.18
2018-12-19T21:39:09.182Z,84.25
2018-12-19T21:44:05.700Z,83.64
2018-12-19T21:49:02.210Z,84.28
2018-12-19T21:53:58.679Z,84.76
2018-12-19T21:58:55.077Z,84.91
2018-12-19T22:03:51.507Z,85.51
2018-12-19T22:08:48.243Z,85.17
2018-12-19T22:13:44.644Z,85.68
2018-12-19T22:18:44.071Z,85.32
2018-12-19T22:23:40.675Z,85.88
2018-12-19T22:28:37.250Z,85.73
2018-12-19T22:33:33.767Z,86.08
2018-12-19T22:38:30.273Z,85.74
2018-12-19T22:43:26.774Z,86.43
2018-12-19T22:48:23.271Z,86.46
2018-12-19T22:53:19.670Z,85.94
2018-12-19T22:58:16.937Z,86.75
2018-12-19T23:03:13.348Z,86.54
2018-12-19T23:08:09.871Z,87.23
2018-12-19T23:13:06.320Z,87.16
2018-12-19T23:18:08.877Z,87.04
2018-12-19T23:23:05.273Z,87.81
2018-12-19T23:28:02.683Z,87.16
2018-12-19T23:32:59.153Z,87.34
2018-12-19T23:37:55.977Z,87.10
2018-12-19T23:42:52.473Z,86.26
2018-12-19T23:47:49.392Z,87.04
2018-12-19T23:52:45.977Z,86.69
2018-12-19T23:57:46.833Z,86.02
